Aérodrome de Bordeaux-Léognan-Saucats

LFCS · Gironda, Nouvelle-Aquitaine, França

História da METAR LFCS · Bordeaux Léognan Saucats Airport

Abaixo você vê METARs dos últimos dias. Selecione um ano para navegar pelos METARs mais antigos, a partir do ano 2007.

3 de dezembro de 2022

Hora Código Clima Temp. Visibilidade Tecto Vento METAR/SPECI
20:30
M
6 °C 10 km+ 2.600 ft 030° 030° 6 kt SPECI LFBD 031930Z AUTO 03006KT 9999 OVC026 06/03 Q1009 TEMPO 2000 MIFG
20:30
M
6 °C 10 km+ 2.600 ft 030° 030° 6 kt METAR LFBD 031930Z AUTO 03006KT 9999 OVC026 06/03 Q1009 TEMPO 2000 MIFG
20:00
M
5 °C 10 km+ 2.700 ft 040° 040° 3 kt METAR LFBD 031900Z AUTO 04003KT 9999 BKN027 BKN096 BKN190 05/03 Q1009 BECMG 4500 BR OVC005
19:30
V
6 °C 10 km+ - 020° 020° 4 kt METAR LFBD 031830Z AUTO 02004KT 9999 FEW033 SCT074 06/03 Q1009 BECMG 4500 BR OVC005
19:00
V
6 °C 10 km+ 3.000 ft 050° 050° 6 kt METAR LFBD 031800Z AUTO 05006KT 9999 BKN030 OVC035 06/03 Q1009 BECMG 4500 BR OVC005
18:30
V
6 °C 10 km+ 3.400 ft 060° 060° 4 kt METAR LFBD 031730Z AUTO 06004KT 020V090 9999 FEW025 BKN034 06/03 Q1009 NOSIG
18:00
V
6 °C 10 km+ 3.700 ft 030° 030° 4 kt METAR LFBD 031700Z AUTO 03004KT 9999 FEW028 BKN037 06/03 Q1009 NOSIG
17:30
V
7 °C 10 km+ 3.500 ft 030° 030° 5 kt METAR LFBD 031630Z AUTO 03005KT 9999 SCT026 OVC035 07/03 Q1009 NOSIG
17:00
M
7 °C 10 km+ 2.900 ft 040° 040° 5 kt METAR LFBD 031600Z AUTO 04005KT 9999 OVC029 07/03 Q1008 NOSIG
16:30
M
7 °C 10 km+ 2.500 ft 050° 050° 6 kt METAR LFBD 031530Z AUTO 05006KT 030V090 9999 BKN025 OVC033 07/03 Q1008 NOSIG
16:00
M
7 °C 10 km+ 2.800 ft 100° 100° 3 kt METAR LFBD 031500Z AUTO 10003KT 070V130 9999 FEW022 BKN028 OVC033 07/02 Q1008 NOSIG
15:30
M
7 °C 10 km+ 2.200 ft 060° 060° 6 kt METAR LFBD 031430Z AUTO 06006KT 9999 BKN022 OVC028 07/03 Q1008 NOSIG
15:00
M
7 °C 10 km+ 2.600 ft 090° 090° 4 kt METAR LFBD 031400Z AUTO 09004KT 050V130 9999 BKN026 BKN031 07/02 Q1008 TEMPO 4000 -RADZ OVC004
14:30
M
7 °C 10 km+ 2.400 ft 070° 070° 4 kt METAR LFBD 031330Z AUTO 07004KT 020V140 9999 BKN024 07/02 Q1008 TEMPO 4000 -RADZ OVC004
14:00
V
7 °C 10 km+ - 070° 070° 4 kt METAR LFBD 031300Z AUTO 07004KT 030V140 9999 FEW022 07/02 Q1009 TEMPO 4000 -RADZ OVC004
13:30
V
7 °C 10 km+ - 060° 060° 6 kt METAR LFBD 031230Z AUTO 06006KT 030V090 9999 FEW021 SCT027 07/02 Q1009 TEMPO 4000 -RADZ OVC004
13:00
M
7 °C 10 km+ 2.100 ft 100° 100° 4 kt METAR LFBD 031200Z AUTO 10004KT 050V140 9999 BKN021 07/03 Q1009 TEMPO 4000 -RADZ OVC004
12:30
M
6 °C 10 km+ 2.000 ft 070° 070° 6 kt METAR LFBD 031130Z AUTO 07006KT 030V090 9999 BKN020 06/02 Q1009 TEMPO 4000 -RADZ OVC004
12:00
V
6 °C 10 km+ - 050° 050° 4 kt METAR LFBD 031100Z AUTO 05004KT 010V070 9999 SCT018 06/02 Q1010 TEMPO 4000 -RADZ OVC004
11:30
M
6 °C 10 km+ 1.400 ft 080° 080° 5 kt METAR LFBD 031030Z AUTO 08005KT 050V120 9999 BKN014 BKN023 06/02 Q1010 TEMPO 4000 -RADZ OVC004
11:00
M
6 °C 10 km+ 1.700 ft 070° 070° 5 kt METAR LFBD 031000Z AUTO 07005KT 010V100 9999 SCT011 BKN017 OVC022 06/03 Q1010 TEMPO 4000 -RADZ OVC004
10:30
M
5 °C 10 km+ 1.000 ft 040° 040° 5 kt METAR LFBD 030930Z AUTO 04005KT 360V070 9999 BKN010 OVC016 05/03 Q1010 TEMPO 4000 -RADZ OVC004
10:00
I
4 °C 8 km 800 ft 040° 040° 3 kt METAR LFBD 030900Z AUTO 04003KT 010V070 8000 BKN008 BKN013 BKN064 04/03 Q1010 TEMPO 4000 -RADZ OVC004
09:30
I
4 °C 7 km 900 ft 030° 030° 3 kt METAR LFBD 030830Z AUTO 03003KT 7000 BKN009 OVC014 04/03 Q1010 TEMPO 4000 -RADZ OVC004
09:00
I
3 °C 5 km 900 ft 040° 040° 4 kt METAR LFBD 030800Z AUTO 04004KT 360V060 5000 BR BKN009 OVC013 03/03 Q1010 TEMPO OVC004
08:30
I
2 °C 5 km 800 ft 020° 020° 4 kt METAR LFBD 030730Z AUTO 02004KT 5000 -RA BR BKN008 BKN060 BKN100 02/02 Q1010 TEMPO OVC004
08:00
M
2 °C 6 km 10.000 ft 360° 360° 4 kt METAR LFBD 030700Z AUTO 36004KT 340V110 6000 SCT008/// SCT060/// BKN100/// //////TCU 02/02 Q1010 TEMPO 4000 -RADZ OVC004
07:30
M
2 °C 6 km 9.600 ft Var Var 2 kt METAR LFBD 030630Z AUTO VRB02KT 6000 FEW008/// BKN096/// //////CB 02/01 Q1010 TEMPO 4000 -RADZ OVC004
07:00
V
3 °C 8 km - 020° 020° 3 kt METAR LFBD 030600Z AUTO 02003KT 8000 FEW008 03/02 Q1010 TEMPO 4000 -RADZ OVC004
06:30
I
3 °C 9 km 900 ft 020° 020° 5 kt METAR LFBD 030530Z AUTO 02005KT 9000 BKN009 BKN052 BKN094 03/02 Q1010 TEMPO 4000 -RADZ OVC004
06:00
V
4 °C 10 km+ 5.200 ft 020° 020° 6 kt METAR LFBD 030500Z AUTO 02006KT 9999 SCT009 BKN052 BKN092 04/03 Q1011 TEMPO 4000 -RADZ OVC004
05:30
I
4 °C 10 km+ 900 ft 020° 020° 6 kt METAR LFBD 030430Z AUTO 02006KT 9999 BKN009 OVC090 04/03 Q1011 TEMPO 4000 -RADZ
05:00
I
4 °C 10 km+ 900 ft 020° 020° 5 kt METAR LFBD 030400Z AUTO 02005KT 9999 OVC009 04/03 Q1011 TEMPO 4000 -RADZ OVC040
04:30
M
4 °C 10 km+ 1.000 ft 010° 010° 5 kt METAR LFBD 030330Z AUTO 01005KT 9999 BKN010 BKN045 OVC074 04/03 Q1011 TEMPO 2000 -RADZ OVC003
04:00
V
4 °C 10 km+ 7.400 ft 360° 360° 5 kt METAR LFBD 030300Z AUTO 36005KT 9999 FEW039 OVC074 04/03 Q1012 TEMPO 2000 -RADZ OVC003
03:30
V
5 °C 10 km+ - 010° 010° 4 kt METAR LFBD 030230Z AUTO 01004KT 350V070 CAVOK 05/03 Q1012 TEMPO 2000 -RADZ OVC003
03:00
V
5 °C 10 km+ 6.200 ft 020° 020° 4 kt METAR LFBD 030200Z AUTO 02004KT 9999 FEW038 OVC062 05/03 Q1012 TEMPO 2000 -RADZ OVC003
02:30
V
5 °C 10 km+ 3.600 ft 010° 010° 5 kt METAR LFBD 030130Z AUTO 01005KT 9999 BKN036 BKN042 OVC056 05/03 Q1012 TEMPO 2000 -RADZ OVC003
02:00
V
5 °C 10 km+ 3.800 ft 010° 010° 5 kt METAR LFBD 030100Z AUTO 01005KT 9999 BKN038 OVC050 05/03 Q1012 TEMPO 2000 -RADZ OVC003
01:30
V
5 °C 10 km+ 4.900 ft 360° 360° 3 kt METAR LFBD 030030Z AUTO 36003KT 350V110 9999 FEW037 OVC049 05/03 Q1013 TEMPO 2000 -RADZ OVC003
01:00
V
5 °C 10 km+ 4.400 ft 010° 010° 4 kt METAR LFBD 030000Z AUTO 01004KT 9999 FEW024 OVC044 05/03 Q1013 TEMPO 2000 -RADZ OVC003
00:30
V
5 °C 10 km+ 3.900 ft 010° 010° 4 kt METAR LFBD 022330Z AUTO 01004KT 9999 OVC039 05/03 Q1013 TEMPO 2000 -RADZ OVC003
00:00
V
5 °C 10 km+ 3.500 ft 020° 020° 5 kt METAR LFBD 022300Z AUTO 02005KT 9999 OVC035 05/03 Q1014 BECMG OVC010

2 de dezembro de 2022

Hora Código Clima Temp. Visibilidade Tecto Vento METAR/SPECI
23:30
V
5 °C 10 km+ 3.500 ft 020° 020° 4 kt METAR LFBD 022230Z AUTO 02004KT 9999 OVC035 05/03 Q1014 BECMG OVC010
23:00
V
5 °C 10 km+ 3.800 ft 360° 360° 4 kt METAR LFBD 022200Z AUTO 36004KT 340V060 9999 OVC038 05/03 Q1014 BECMG OVC010
22:30
V
5 °C 10 km+ 4.100 ft 010° 010° 3 kt METAR LFBD 022130Z AUTO 01003KT 9999 OVC041 05/03 Q1014 BECMG OVC010
22:00
V
5 °C 10 km+ 4.300 ft 020° 020° 4 kt METAR LFBD 022100Z AUTO 02004KT 9999 BKN043 OVC160 05/03 Q1014 BECMG OVC010
21:30
V
5 °C 10 km+ 15.000 ft 020° 020° 4 kt METAR LFBD 022030Z AUTO 02004KT 340V040 9999 FEW045 OVC150 05/02 Q1014 BECMG OVC010
21:00
V
5 °C 10 km+ - 030° 030° 6 kt METAR LFBD 022000Z AUTO 03006KT 350V050 CAVOK 05/03 Q1015 NOSIG
20:30
V
5 °C 10 km+ - 040° 040° 5 kt METAR LFBD 021930Z AUTO 04005KT 020V080 CAVOK 05/03 Q1015 NOSIG
20:00
V
5 °C 10 km+ - 040° 040° 5 kt METAR LFBD 021900Z AUTO 04005KT CAVOK 05/03 Q1015 NOSIG
19:30
V
5 °C 10 km+ 16.000 ft 040° 040° 5 kt METAR LFBD 021830Z AUTO 04005KT 9999 FEW043 SCT130 BKN160 05/03 Q1015 NOSIG
19:00
V
6 °C 10 km+ 15.000 ft 040° 040° 5 kt METAR LFBD 021800Z AUTO 04005KT 9999 FEW037 BKN150 OVC210 06/03 Q1016 NOSIG
18:30
V
6 °C 10 km+ 3.600 ft 030° 030° 6 kt METAR LFBD 021730Z AUTO 03006KT 9999 BKN036 OVC170 06/03 Q1016 NOSIG
18:00
V
6 °C 10 km+ 3.400 ft 020° 020° 7 kt METAR LFBD 021700Z AUTO 02007KT 9999 OVC034 06/03 Q1016 NOSIG
17:30
V
6 °C 10 km+ 3.300 ft 020° 020° 7 kt METAR LFBD 021630Z AUTO 02007KT 9999 OVC033 06/03 Q1016 NOSIG
17:00
V
7 °C 10 km+ 3.100 ft 020° 020° 6 kt METAR LFBD 021600Z AUTO 02006KT 350V050 9999 FEW019 OVC031 07/03 Q1016 NOSIG
16:30
V
7 °C 10 km+ 3.200 ft 020° 020° 6 kt METAR LFBD 021530Z AUTO 02006KT 9999 FEW019 OVC032 07/03 Q1016 NOSIG
16:00
V
7 °C 10 km+ 3.400 ft 030° 030° 7 kt METAR LFBD 021500Z AUTO 03007KT 9999 FEW020 OVC034 07/03 Q1016 NOSIG
15:30
M
7 °C 10 km+ 2.300 ft 020° 020° 7 kt METAR LFBD 021430Z AUTO 02007KT 9999 SCT018 BKN023 BKN028 07/03 Q1016 NOSIG
15:00
M
7 °C 10 km+ 2.400 ft 020° 020° 7 kt METAR LFBD 021400Z AUTO 02007KT 9999 SCT018 BKN024 BKN030 07/03 Q1016 NOSIG
14:30
M
7 °C 10 km+ 1.800 ft 030° 030° 7 kt METAR LFBD 021330Z AUTO 03007KT 9999 BKN018 BKN027 OVC036 07/03 Q1017 NOSIG
14:00
M
7 °C 10 km+ 1.900 ft 050° 050° 8 kt METAR LFBD 021300Z AUTO 05008KT 9999 BKN019 BKN030 OVC037 07/03 Q1017 NOSIG
13:30
M
7 °C 10 km+ 1.700 ft 030° 030° 7 kt METAR LFBD 021230Z AUTO 03007KT 360V060 9999 BKN017 BKN022 OVC038 07/04 Q1017 NOSIG
13:00
M
7 °C 10 km+ 1.700 ft 030° 030° 7 kt METAR LFBD 021200Z AUTO 03007KT 9999 BKN017 OVC038 07/03 Q1017 NOSIG
12:30
V
7 °C 10 km+ 3.700 ft 030° 030° 8 kt METAR LFBD 021130Z AUTO 03008KT 9999 FEW019 OVC037 07/03 Q1018 NOSIG
12:00
V
7 °C 10 km+ 3.800 ft 040° 040° 8 kt METAR LFBD 021100Z AUTO 04008KT 9999 OVC038 07/03 Q1018 NOSIG
11:30
V
7 °C 10 km+ 3.900 ft 040° 040° 8 kt METAR LFBD 021030Z AUTO 04008KT 010V070 9999 OVC039 07/04 Q1018 NOSIG
11:00
V
7 °C 10 km+ 4.000 ft 040° 040° 8 kt METAR LFBD 021000Z AUTO 04008KT 9999 OVC040 07/04 Q1019 NOSIG
10:30
V
7 °C 10 km+ 4.000 ft 040° 040° 7 kt METAR LFBD 020930Z AUTO 04007KT 9999 OVC040 07/04 Q1019 NOSIG
10:00
V
6 °C 10 km+ 4.100 ft 040° 040° 5 kt METAR LFBD 020900Z AUTO 04005KT 9999 OVC041 06/04 Q1019 NOSIG
09:30
V
6 °C 10 km+ 4.000 ft 030° 030° 5 kt METAR LFBD 020830Z AUTO 03005KT 9999 OVC040 06/04 Q1019 NOSIG
09:00
V
6 °C 9 km 4.000 ft 040° 040° 5 kt METAR LFBD 020800Z AUTO 04005KT 360V060 9000 OVC040 06/04 Q1019 NOSIG
08:30
V
6 °C 9 km 4.200 ft 040° 040° 5 kt METAR LFBD 020730Z AUTO 04005KT 9000 OVC042 06/04 Q1019 NOSIG
08:00
V
6 °C 8 km 4.400 ft 040° 040° 5 kt METAR LFBD 020700Z AUTO 04005KT 8000 OVC044 06/04 Q1019 TEMPO 3000 BR
07:30
M
5 °C 7 km 4.500 ft 040° 040° 5 kt METAR LFBD 020630Z AUTO 04005KT 7000 OVC045 05/04 Q1019 TEMPO 3000 BR
07:00
M
5 °C 7 km 4.600 ft 030° 030° 5 kt METAR LFBD 020600Z AUTO 03005KT 350V060 7000 OVC046 05/04 Q1019 TEMPO 3000 BR
06:30
M
5 °C 7 km 4.800 ft 030° 030° 5 kt METAR LFBD 020530Z AUTO 03005KT 320V070 7000 OVC048 05/04 Q1019 TEMPO 3000 BR
06:00
M
5 °C 7 km 4.800 ft 030° 030° 5 kt METAR LFBD 020500Z AUTO 03005KT 7000 OVC048 05/04 Q1019 TEMPO 3000 BR
05:30
M
5 °C 6 km 4.900 ft 030° 030° 6 kt METAR LFBD 020430Z AUTO 03006KT 6000 BKN049 05/04 Q1019 TEMPO 3000 BR
05:00
M
5 °C 6 km 4.700 ft 020° 020° 6 kt METAR LFBD 020400Z AUTO 02006KT 6000 FEW008 BKN047 05/04 Q1019 TEMPO 3000 BR
04:30
M
6 °C 7 km 4.600 ft 020° 020° 7 kt METAR LFBD 020330Z AUTO 02007KT 7000 OVC046 06/04 Q1019 TEMPO 3000 BR
04:00
M
6 °C 7 km 4.500 ft 020° 020° 6 kt METAR LFBD 020300Z AUTO 02006KT 7000 BKN045 06/04 Q1020 TEMPO 3000 BR
03:30
V
6 °C 8 km 4.500 ft 030° 030° 6 kt METAR LFBD 020230Z AUTO 03006KT 8000 OVC045 06/04 Q1020 TEMPO 3000 BR
03:00
V
7 °C 9 km 4.500 ft 030° 030° 7 kt METAR LFBD 020200Z AUTO 03007KT 9000 OVC045 07/05 Q1020 TEMPO 0400 FG VV///
02:30
V
7 °C 9 km 4.500 ft 020° 020° 6 kt METAR LFBD 020130Z AUTO 02006KT 9000 OVC045 07/05 Q1020 TEMPO 0400 FG VV///
02:00
V
7 °C 10 km+ 4.500 ft 010° 010° 5 kt METAR LFBD 020100Z AUTO 01005KT 9999 OVC045 07/05 Q1020 TEMPO 3000 BR
01:30
V
7 °C 10 km+ 4.500 ft 030° 030° 3 kt METAR LFBD 020030Z AUTO 03003KT 9999 OVC045 07/05 Q1020 TEMPO 3000 BR
01:00
V
7 °C 10 km+ 4.400 ft 040° 040° 5 kt METAR LFBD 020000Z AUTO 04005KT 9999 OVC044 07/04 Q1021 TEMPO 3000 BR
00:30
V
7 °C 10 km+ 4.400 ft 020° 020° 6 kt METAR LFBD 012330Z AUTO 02006KT 9999 OVC044 07/04 Q1021 BECMG 3000 BR
00:00
V
6 °C 10 km+ 4.300 ft 030° 030° 3 kt METAR LFBD 012300Z AUTO 03003KT 9999 OVC043 06/04 Q1021 BECMG 3000 BR

1 de dezembro de 2022

Hora Código Clima Temp. Visibilidade Tecto Vento METAR/SPECI
23:30
V
6 °C 9 km 4.300 ft 030° 030° 5 kt METAR LFBD 012230Z AUTO 03005KT 9000 OVC043 06/04 Q1021 BECMG 3000 BR
23:00
V
5 °C 8 km 4.500 ft Var Var 2 kt METAR LFBD 012200Z AUTO VRB02KT 8000 OVC045 05/04 Q1021 BECMG 3000 BR
22:30
V
5 °C 8 km 4.800 ft Var Var 3 kt METAR LFBD 012130Z AUTO VRB03KT 8000 OVC048 05/04 Q1021 BECMG 3000 BR
22:00
M
5 °C 7 km 4.800 ft 360° 360° 4 kt METAR LFBD 012100Z AUTO 36004KT 330V060 7000 OVC048 05/04 Q1021 NOSIG
21:30
M
5 °C 7 km - 350° 350° 3 kt METAR LFBD 012030Z AUTO 35003KT 330V070 7000 FEW048 05/04 Q1021 NOSIG
21:00
V
5 °C 8 km - 360° 360° 3 kt METAR LFBD 012000Z AUTO 36003KT 320V110 8000 FEW046 05/04 Q1021 NOSIG
20:30
V
6 °C 10 km+ - 020° 020° 4 kt METAR LFBD 011930Z AUTO 02004KT CAVOK 06/04 Q1021 NOSIG
20:00
V
6 °C 10 km+ - 020° 020° 6 kt METAR LFBD 011900Z AUTO 02006KT CAVOK 06/04 Q1021 NOSIG
19:30
V
7 °C 10 km+ - 030° 030° 8 kt METAR LFBD 011830Z AUTO 03008KT 9999 FEW045 07/04 Q1021 NOSIG
19:00
V
8 °C 10 km+ 4.400 ft 020° 020° 9 kt METAR LFBD 011800Z AUTO 02009KT 9999 BKN044 08/05 Q1021 NOSIG
18:30
V
8 °C 10 km+ 4.200 ft 020° 020° 9 kt METAR LFBD 011730Z AUTO 02009KT 9999 OVC042 08/05 Q1021 NOSIG
18:00
V
8 °C 10 km+ 4.200 ft 020° 020° 8 kt METAR LFBD 011700Z AUTO 02008KT 340V040 9999 OVC042 08/05 Q1021 NOSIG
17:30
V
9 °C 10 km+ 4.000 ft 020° 020° 10 kt METAR LFBD 011630Z AUTO 02010KT 9999 OVC040 09/05 Q1021 NOSIG
17:00
V
9 °C 10 km+ 3.700 ft 010° 010° 8 kt METAR LFBD 011600Z AUTO 01008KT 9999 FEW029 BKN037 09/05 Q1020 NOSIG
16:30
V
10 °C 10 km+ 3.900 ft 010° 010° 10 kt METAR LFBD 011530Z AUTO 01010KT 9999 FEW027 BKN039 10/05 Q1020 NOSIG
16:00
V
10 °C 10 km+ 3.600 ft 010° 010° 7 kt METAR LFBD 011500Z AUTO 01007KT 350V060 9999 FEW024 BKN036 10/05 Q1020 NOSIG
15:30
V
11 °C 10 km+ 3.300 ft 350° 350° 10 kt METAR LFBD 011430Z AUTO 35010KT 320V040 9999 SCT024 BKN033 11/06 Q1020 NOSIG
15:00
V
10 °C 10 km+ 3.700 ft 010° 010° 11 kt METAR LFBD 011400Z AUTO 01011KT 340V050 9999 FEW028 BKN037 10/05 Q1020 NOSIG
14:30
M
11 °C 10 km+ 2.900 ft 010° 010° 10 kt METAR LFBD 011330Z AUTO 01010KT 9999 BKN029 BKN038 11/05 Q1021 NOSIG
14:00
V
11 °C 10 km+ - 030° 030° 10 kt METAR LFBD 011300Z AUTO 03010KT 360V060 9999 FEW027 11/05 Q1021 NOSIG
13:30
V
10 °C 10 km+ - 030° 030° 11 kt METAR LFBD 011230Z AUTO 03011KT 9999 FEW024 10/05 Q1021 NOSIG
13:00
V
10 °C 10 km+ - 030° 030° 10 kt METAR LFBD 011200Z AUTO 03010KT 010V070 9999 SCT023 10/05 Q1021 NOSIG
12:30
V
10 °C 10 km+ - 020° 020° 9 kt METAR LFBD 011130Z AUTO 02009KT 330V050 9999 SCT020 10/05 Q1021 NOSIG
12:00
V
9 °C 10 km+ - 020° 020° 9 kt METAR LFBD 011100Z AUTO 02009KT 350V050 9999 FEW019 09/05 Q1022 TEMPO BKN010
11:30
V
8 °C 10 km+ - 020° 020° 7 kt METAR LFBD 011030Z AUTO 02007KT CAVOK 08/05 Q1022 TEMPO BKN010
11:00
V
7 °C 10 km+ - 030° 030° 7 kt METAR LFBD 011000Z AUTO 03007KT CAVOK 07/05 Q1022 TEMPO BKN010

Nós e terceiros acompanhamos seu comportamento na internet em nosso site com cookies. Se você continuar, nós assumimos que você concorda com nosso política de cookies.